createdAt,value
2023-04-15T00:01:05.978Z,1.80
2023-04-15T00:11:09.197Z,1.95
2023-04-15T00:16:10.964Z,1.52
2023-04-15T00:26:14.220Z,1.55
2023-04-15T00:31:16.307Z,1.20
2023-04-15T00:41:19.478Z,1.90
2023-04-15T00:46:21.421Z,2.00
2023-04-15T00:51:23.422Z,1.92
2023-04-15T01:01:28.807Z,1.67
2023-04-15T01:06:33.499Z,2.10
2023-04-15T01:11:35.617Z,1.70
2023-04-15T01:16:39.816Z,1.85
2023-04-15T01:21:41.603Z,1.75
2023-04-15T01:26:44.557Z,1.77
2023-04-15T01:31:53.670Z,2.28
2023-04-15T01:36:55.575Z,2.70
2023-04-15T01:41:57.505Z,2.03
2023-04-15T01:46:59.336Z,2.63
2023-04-15T01:52:01.595Z,1.42
2023-04-15T01:57:03.620Z,3.38
2023-04-15T02:02:05.550Z,3.15
2023-04-15T02:07:07.129Z,3.25
2023-04-15T02:12:10.184Z,3.17
2023-04-15T02:17:11.633Z,3.08
2023-04-15T02:22:18.200Z,2.55
2023-04-15T02:27:22.462Z,2.85
2023-04-15T02:32:25.146Z,3.05
2023-04-15T02:37:30.460Z,1.70
2023-04-15T02:42:32.847Z,2.70
2023-04-15T02:47:36.324Z,2.15
2023-04-15T02:52:41.637Z,3.08
2023-04-15T02:57:43.799Z,3.70
2023-04-15T03:02:47.018Z,3.40
2023-04-15T03:07:48.645Z,3.63
2023-04-15T03:12:50.341Z,3.85
2023-04-15T03:17:54.172Z,3.03
2023-04-15T03:22:55.664Z,1.85
2023-04-15T03:28:00.689Z,3.28
2023-04-15T03:33:02.347Z,2.25
2023-04-15T03:38:04.097Z,3.20
2023-04-15T03:43:05.700Z,3.55
2023-04-15T03:48:17.323Z,3.70
2023-04-15T03:53:21.371Z,3.00
2023-04-15T03:58:22.905Z,3.65
2023-04-15T04:03:24.527Z,2.67
2023-04-15T04:08:27.490Z,3.15
2023-04-15T04:13:28.965Z,3.60
2023-04-15T04:18:34.342Z,4.10
2023-04-15T04:23:35.766Z,5.18
2023-04-15T04:28:37.290Z,6.47
2023-04-15T04:33:39.904Z,4.28
2023-04-15T04:38:41.403Z,4.38
2023-04-15T04:43:42.835Z,5.32
2023-04-15T04:48:46.617Z,4.40
2023-04-15T04:53:48.692Z,3.95
2023-04-15T04:58:50.164Z,5.57
2023-04-15T05:03:51.769Z,6.93
2023-04-15T05:08:53.337Z,5.63
2023-04-15T05:13:54.798Z,5.90
2023-04-15T05:18:56.701Z,6.18
2023-04-15T05:29:05.810Z,2.53
2023-04-15T05:34:12.941Z,3.30
2023-04-15T05:39:14.497Z,3.80
2023-04-15T05:44:16.289Z,3.97
2023-04-15T05:54:23.388Z,6.07
2023-04-15T05:59:25.138Z,3.85
2023-04-15T06:04:29.650Z,4.75
2023-04-15T06:09:31.331Z,4.95
2023-04-15T06:14:32.982Z,4.60
2023-04-15T06:19:38.657Z,4.47
2023-04-15T06:24:42.712Z,4.38
2023-04-15T06:29:44.912Z,2.67
2023-04-15T06:39:47.892Z,2.60
2023-04-15T06:44:49.743Z,2.03
2023-04-15T06:49:51.925Z,2.22
2023-04-15T06:54:53.407Z,2.30
2023-04-15T06:59:54.973Z,2.08
2023-04-15T07:04:56.934Z,1.33
2023-04-15T07:09:58.446Z,0.85
2023-04-15T07:14:59.927Z,1.23
2023-04-15T07:20:01.499Z,1.23
2023-04-15T07:25:03.185Z,1.90
2023-04-15T07:30:09.426Z,1.27
2023-04-15T07:35:11.803Z,1.50
2023-04-15T07:40:16.126Z,1.20
2023-04-15T07:45:17.610Z,1.13
2023-04-15T07:50:19.773Z,1.00
2023-04-15T07:55:23.315Z,0.70
2023-04-15T08:00:24.833Z,1.23
2023-04-15T08:05:26.262Z,0.70
2023-04-15T08:10:30.035Z,0.60
2023-04-15T08:15:32.921Z,1.10
2023-04-15T08:20:34.502Z,1.40
2023-04-15T08:25:40.752Z,1.23
2023-04-15T08:30:44.672Z,0.80
2023-04-15T08:35:46.768Z,0.95
2023-04-15T08:40:48.527Z,0.80
2023-04-15T08:45:52.173Z,0.77
2023-04-15T08:50:53.809Z,0.70
2023-04-15T09:01:01.648Z,1.00
2023-04-15T09:06:05.867Z,0.88
2023-04-15T09:11:07.329Z,0.70
2023-04-15T09:16:09.336Z,1.00
2023-04-15T09:21:13.129Z,1.10
2023-04-15T09:26:16.963Z,0.80
2023-04-15T09:31:29.429Z,1.00
2023-04-15T09:36:51.803Z,1.02
2023-04-15T09:42:07.085Z,1.42
2023-04-15T09:47:08.526Z,0.90
2023-04-15T09:52:13.957Z,1.00
2023-04-15T09:57:15.762Z,1.00
2023-04-15T10:02:20.793Z,0.90
2023-04-15T10:08:14.203Z,1.05
2023-04-15T10:13:24.618Z,1.00
2023-04-15T10:18:28.187Z,0.80
2023-04-15T10:23:30.441Z,0.80
2023-04-15T10:28:32.146Z,1.50
2023-04-15T10:33:34.651Z,3.10
2023-04-15T10:38:40.114Z,2.38
2023-04-15T10:44:09.487Z,3.60
2023-04-15T10:49:32.758Z,2.38
2023-04-15T11:00:22.548Z,3.55
2023-04-15T11:05:45.792Z,3.10
2023-04-15T11:10:52.836Z,3.28
2023-04-15T11:23:15.361Z,3.30
2023-04-15T11:42:03.057Z,3.28
2023-04-15T11:47:23.346Z,3.67
2023-04-15T11:57:51.547Z,3.92
2023-04-15T12:03:30.417Z,3.50
2023-04-15T12:14:20.919Z,2.83
2023-04-15T12:19:36.079Z,2.30
2023-04-15T12:24:38.747Z,3.10
2023-04-15T12:30:11.999Z,3.45
2023-04-15T12:35:17.965Z,2.80
2023-04-15T12:53:16.609Z,2.33
2023-04-15T12:58:43.331Z,2.10
2023-04-15T13:03:51.284Z,1.67
2023-04-15T13:09:23.263Z,2.03
2023-04-15T13:14:25.022Z,2.08
2023-04-15T13:19:26.782Z,2.20
2023-04-15T13:24:28.460Z,1.95
2023-04-15T13:35:06.471Z,2.05
2023-04-15T13:40:45.457Z,2.25
2023-04-15T13:45:51.718Z,2.10
2023-04-15T13:50:53.299Z,2.67
2023-04-15T13:55:54.868Z,2.58
2023-04-15T14:00:57.043Z,1.55
2023-04-15T14:05:59.498Z,1.98
2023-04-15T14:11:01.314Z,2.20
2023-04-15T14:16:05.903Z,2.30
2023-04-15T14:34:23.801Z,2.10
2023-04-15T15:06:08.983Z,2.53
2023-04-15T15:11:21.019Z,1.60
2023-04-15T15:16:24.491Z,2.22
2023-04-15T15:40:35.592Z,2.47
2023-04-15T15:45:47.264Z,2.38
2023-04-15T15:51:09.133Z,2.30
2023-04-15T15:56:10.776Z,2.42
2023-04-15T16:01:12.248Z,2.53
2023-04-15T16:06:13.711Z,2.10
2023-04-15T16:11:15.348Z,1.77
2023-04-15T16:16:16.836Z,1.90
2023-04-15T16:21:19.464Z,4.15
2023-04-15T16:26:20.913Z,2.20
2023-04-15T16:31:22.364Z,2.47
2023-04-15T16:36:23.956Z,2.47
2023-04-15T16:41:25.467Z,1.95
2023-04-15T16:46:27.067Z,1.92
2023-04-15T16:51:30.476Z,1.85
2023-04-15T16:56:31.928Z,1.90
2023-04-15T17:01:33.430Z,2.00
2023-04-15T17:06:35.027Z,2.10
2023-04-15T17:11:38.660Z,1.70
2023-04-15T17:16:40.291Z,2.00
2023-04-15T17:21:41.910Z,2.05
2023-04-15T17:26:43.738Z,2.13
2023-04-15T17:31:45.406Z,2.72
2023-04-15T17:36:47.880Z,2.65
2023-04-15T17:41:49.309Z,2.13
2023-04-15T17:51:54.790Z,1.88
2023-04-15T17:56:56.800Z,2.63
2023-04-15T18:01:58.513Z,2.20
2023-04-15T18:07:00.140Z,2.70
2023-04-15T18:12:02.158Z,1.48
2023-04-15T18:17:03.797Z,1.48
2023-04-15T18:22:05.476Z,2.00
2023-04-15T18:27:06.952Z,1.48
2023-04-15T18:32:08.406Z,1.50
2023-04-15T18:37:09.966Z,1.55
2023-04-15T18:42:11.564Z,5.90
2023-04-15T18:47:13.374Z,6.88
2023-04-15T18:52:14.941Z,5.80
2023-04-15T19:02:30.253Z,3.45
2023-04-15T19:07:31.771Z,4.78
2023-04-15T19:12:33.420Z,2.30
2023-04-15T19:17:34.935Z,2.08
2023-04-15T19:22:36.831Z,1.90
2023-04-15T19:27:38.403Z,2.03
2023-04-15T19:32:42.372Z,2.28
2023-04-15T19:37:47.695Z,4.15
2023-04-15T19:42:49.161Z,2.33
2023-04-15T19:47:50.891Z,6.97
2023-04-15T19:52:52.884Z,3.72
2023-04-15T19:57:54.511Z,6.68
2023-04-15T20:02:56.515Z,3.15
2023-04-15T20:07:59.822Z,2.60
2023-04-15T20:13:01.581Z,3.80
2023-04-15T20:23:04.830Z,4.75
2023-04-15T20:33:08.050Z,2.70
2023-04-15T20:38:09.604Z,2.42
2023-04-15T20:48:12.801Z,3.50
2023-04-15T20:53:14.444Z,2.42
2023-04-15T20:58:16.032Z,2.35
2023-04-15T21:03:17.626Z,2.97
2023-04-15T21:08:20.301Z,2.30
2023-04-15T21:13:22.545Z,2.60
2023-04-15T21:18:24.040Z,3.30
2023-04-15T21:28:30.904Z,3.22
2023-04-15T21:33:32.340Z,2.42
2023-04-15T21:38:33.989Z,7.07
2023-04-15T21:43:38.390Z,3.83
2023-04-15T21:48:39.925Z,4.28
2023-04-15T21:58:42.969Z,4.05
2023-04-15T22:03:44.868Z,8.98
2023-04-15T22:08:56.195Z,5.75
2023-04-15T22:13:59.355Z,3.38
2023-04-15T22:19:02.582Z,8.75
2023-04-15T22:24:32.593Z,4.03
2023-04-15T22:29:26.120Z,3.92
2023-04-15T22:34:27.568Z,5.90
2023-04-15T22:39:29.014Z,7.68
2023-04-15T22:44:30.447Z,6.60
2023-04-15T22:49:31.933Z,5.72
2023-04-15T22:54:33.366Z,3.40
2023-04-15T22:59:34.788Z,3.35
2023-04-15T23:04:36.369Z,3.30
2023-04-15T23:09:39.217Z,4.03
2023-04-15T23:14:40.689Z,2.92
2023-04-15T23:24:43.548Z,3.45
2023-04-15T23:29:45.104Z,3.67
2023-04-15T23:34:46.528Z,6.55
2023-04-15T23:39:47.974Z,3.78
2023-04-15T23:44:49.464Z,4.18
2023-04-15T23:49:50.906Z,3.13
2023-04-15T23:54:52.376Z,3.28
2023-04-15T23:59:53.882Z,5.05
